createdAt,value
2018-09-10T00:00:37.197Z,93.30
2018-09-10T00:01:37.177Z,93.02
2018-09-10T00:02:37.162Z,93.78
2018-09-10T00:03:37.138Z,93.98
2018-09-10T00:04:37.101Z,93.78
2018-09-10T00:05:37.082Z,93.59
2018-09-10T00:06:37.059Z,94.26
2018-09-10T00:07:37.036Z,94.26
2018-09-10T00:08:37.010Z,93.40
2018-09-10T00:09:36.989Z,93.30
2018-09-10T00:10:37.011Z,93.88
2018-09-10T00:11:36.935Z,93.88
2018-09-10T00:12:36.915Z,94.45
2018-09-10T00:13:36.895Z,94.45
2018-09-10T00:14:36.866Z,94.55
2018-09-10T00:15:36.864Z,94.45
2018-09-10T00:16:36.822Z,94.74
2018-09-10T00:17:36.807Z,94.17
2018-09-10T00:18:36.777Z,94.55
2018-09-10T00:19:36.761Z,94.07
2018-09-10T00:21:09.935Z,94.64
2018-09-10T00:21:36.721Z,94.35
2018-09-10T00:22:36.684Z,93.69
2018-09-10T00:23:36.667Z,94.26
2018-09-10T00:24:36.637Z,94.55
2018-09-10T00:25:36.611Z,94.45
2018-09-10T00:26:36.593Z,93.59
2018-09-10T00:27:36.577Z,93.59
2018-09-10T00:28:36.590Z,93.59
2018-09-10T00:29:36.518Z,94.45
2018-09-10T00:30:36.497Z,93.49
2018-09-10T00:31:36.484Z,93.49
2018-09-10T00:32:36.446Z,94.45
2018-09-10T00:33:36.423Z,93.78
2018-09-10T00:34:36.404Z,93.78
2018-09-10T00:35:36.383Z,94.17
2018-09-10T00:36:36.347Z,93.98
2018-09-10T00:37:36.327Z,94.45
2018-09-10T00:38:36.307Z,94.17
2018-09-10T00:39:36.283Z,94.55
2018-09-10T00:40:36.261Z,94.26
2018-09-10T00:41:36.238Z,94.64
2018-09-10T00:42:36.217Z,94.45
2018-09-10T00:43:36.192Z,94.55
2018-09-10T00:44:36.165Z,94.26
2018-09-10T00:45:36.142Z,93.98
2018-09-10T00:46:36.118Z,93.98
2018-09-10T00:47:36.091Z,93.88
2018-09-10T00:48:36.085Z,93.59
2018-09-10T00:49:36.058Z,93.69
2018-09-10T00:50:36.018Z,94.26
2018-09-10T00:51:35.993Z,94.45
2018-09-10T00:52:35.985Z,93.98
2018-09-10T00:53:35.957Z,94.55
2018-09-10T00:54:35.931Z,94.26
2018-09-10T00:55:35.921Z,94.17
2018-09-10T00:56:35.886Z,94.64
2018-09-10T00:57:35.861Z,94.50
2018-09-10T00:58:35.829Z,94.55
2018-09-10T00:59:35.810Z,94.64
2018-09-10T01:00:35.794Z,94.45
2018-09-10T01:01:35.761Z,94.31
2018-09-10T01:02:35.754Z,94.35
2018-09-10T01:03:35.723Z,94.55
2018-09-10T01:04:35.694Z,94.64
2018-09-10T01:05:35.667Z,94.26
2018-09-10T01:06:35.643Z,94.21
2018-09-10T01:07:35.630Z,94.64
2018-09-10T01:08:35.616Z,94.21
2018-09-10T01:09:35.582Z,94.60
2018-09-10T01:10:35.555Z,94.50
2018-09-10T01:11:35.538Z,94.89
2018-09-10T01:12:35.503Z,94.60
2018-09-10T01:13:35.484Z,95.36
2018-09-10T01:14:35.451Z,95.07
2018-09-10T01:15:35.440Z,95.36
2018-09-10T01:16:35.406Z,95.56
2018-09-10T01:17:35.386Z,95.46
2018-09-10T01:18:35.365Z,95.56
2018-09-10T01:19:35.345Z,95.56
2018-09-10T01:20:35.309Z,95.75
2018-09-10T01:21:35.287Z,95.94
2018-09-10T01:22:35.266Z,95.84
2018-09-10T01:23:35.238Z,95.17
2018-09-10T01:24:35.220Z,95.75
2018-09-10T01:25:35.203Z,95.56
2018-09-10T01:26:35.177Z,95.75
2018-09-10T01:27:35.151Z,95.17
2018-09-10T01:28:35.121Z,95.56
2018-09-10T01:29:35.101Z,95.94
2018-09-10T01:30:35.094Z,95.07
2018-09-10T01:31:35.056Z,95.84
2018-09-10T01:32:35.030Z,95.84
2018-09-10T01:33:35.014Z,95.75
2018-09-10T01:34:34.987Z,96.03
2018-09-10T01:35:34.962Z,95.75
2018-09-10T01:36:34.938Z,95.84
2018-09-10T01:37:34.925Z,95.75
2018-09-10T01:38:34.895Z,95.27
2018-09-10T01:39:34.860Z,96.13
2018-09-10T01:40:34.838Z,96.70
2018-09-10T01:41:34.833Z,96.03
2018-09-10T01:42:34.796Z,96.32
2018-09-10T01:43:34.771Z,96.22
2018-09-10T01:44:34.745Z,96.51
2018-09-10T01:45:34.727Z,96.13
2018-09-10T01:46:34.707Z,96.51
2018-09-10T01:47:34.680Z,96.03
2018-09-10T01:48:34.663Z,96.51
2018-09-10T01:49:34.636Z,96.32
2018-09-10T01:50:34.604Z,96.03
2018-09-10T01:51:34.579Z,96.51
2018-09-10T01:52:34.574Z,96.80
2018-09-10T01:53:34.540Z,96.51
2018-09-10T01:54:34.504Z,96.32
2018-09-10T01:55:34.485Z,96.03
2018-09-10T01:56:34.461Z,95.94
2018-09-10T01:57:34.451Z,96.03
2018-09-10T01:58:34.413Z,96.13
2018-09-10T01:59:34.391Z,96.42
2018-09-10T02:00:34.365Z,96.80
2018-09-10T02:01:34.342Z,96.80
2018-09-10T02:02:34.419Z,96.61
2018-09-10T02:03:34.296Z,96.13
2018-09-10T02:04:34.288Z,96.42
2018-09-10T02:05:34.244Z,96.03
2018-09-10T02:06:34.226Z,95.75
2018-09-10T02:07:34.198Z,96.42
2018-09-10T02:08:34.176Z,96.22
2018-09-10T02:09:34.157Z,95.94
2018-09-10T02:10:34.122Z,96.13
2018-09-10T02:11:34.100Z,96.22
2018-09-10T02:12:34.086Z,96.37
2018-09-10T02:13:34.056Z,96.18
2018-09-10T02:14:34.034Z,96.51
2018-09-10T02:15:34.008Z,96.51
2018-09-10T02:16:33.988Z,96.70
2018-09-10T02:17:33.962Z,96.70
2018-09-10T02:18:33.944Z,96.61
2018-09-10T02:19:33.901Z,96.99
2018-09-10T02:20:33.889Z,96.99
2018-09-10T02:21:33.864Z,96.99
2018-09-10T02:23:07.055Z,96.70
2018-09-10T02:23:33.830Z,96.80
2018-09-10T02:24:33.797Z,96.13
2018-09-10T02:25:33.773Z,96.22
2018-09-10T02:26:33.753Z,96.42
2018-09-10T02:27:33.845Z,96.03
2018-09-10T02:28:33.698Z,96.22
2018-09-10T02:29:33.660Z,96.42
2018-09-10T02:30:33.652Z,96.51
2018-09-10T02:31:33.624Z,96.61
2018-09-10T02:32:33.611Z,96.61
2018-09-10T02:33:33.582Z,96.51
2018-09-10T02:34:33.553Z,96.61
2018-09-10T02:35:33.517Z,96.13
2018-09-10T02:36:33.512Z,96.32
2018-09-10T02:37:33.485Z,96.22
2018-09-10T02:38:33.513Z,96.42
2018-09-10T02:39:33.445Z,96.22
2018-09-10T02:40:33.426Z,96.22
2018-09-10T02:41:33.399Z,96.03
2018-09-10T02:42:33.371Z,96.03
2018-09-10T02:43:33.345Z,95.75
2018-09-10T02:44:33.325Z,95.65
2018-09-10T02:45:33.298Z,96.22
2018-09-10T02:46:33.273Z,95.84
2018-09-10T02:47:33.252Z,96.42
2018-09-10T02:48:33.224Z,95.84
2018-09-10T02:49:33.204Z,95.94
2018-09-10T02:50:33.184Z,95.36
2018-09-10T02:51:33.153Z,95.46
2018-09-10T02:52:33.135Z,94.98
2018-09-10T02:53:33.108Z,95.75
2018-09-10T02:54:33.254Z,95.65
2018-09-10T02:55:33.067Z,95.65
2018-09-10T02:56:33.039Z,95.75
2018-09-10T02:57:33.013Z,95.75
2018-09-10T02:58:32.996Z,95.65
2018-09-10T02:59:32.970Z,96.61
2018-09-10T03:00:32.949Z,95.94
2018-09-10T03:01:32.921Z,96.03
2018-09-10T03:02:32.895Z,95.84
2018-09-10T03:03:32.868Z,95.65
2018-09-10T03:04:32.851Z,95.56
2018-09-10T03:05:32.831Z,95.27
2018-09-10T03:06:32.799Z,95.65
2018-09-10T03:07:32.785Z,95.84
2018-09-10T03:08:32.752Z,96.32
2018-09-10T03:09:32.734Z,95.98
2018-09-10T03:10:32.707Z,96.03
2018-09-10T03:11:32.683Z,96.80
2018-09-10T03:12:32.645Z,95.70
2018-09-10T03:13:32.636Z,96.03
2018-09-10T03:14:32.618Z,95.65
2018-09-10T03:15:32.583Z,94.98
2018-09-10T03:16:32.560Z,95.17
2018-09-10T03:17:32.521Z,94.98
2018-09-10T03:18:32.514Z,95.36
2018-09-10T03:19:32.482Z,95.07
2018-09-10T03:20:32.469Z,95.56
2018-09-10T03:21:32.447Z,95.36
2018-09-10T03:22:32.420Z,95.17
2018-09-10T03:23:32.504Z,95.75
2018-09-10T03:24:32.370Z,95.65
2018-09-10T03:25:32.352Z,95.36
2018-09-10T03:26:32.322Z,95.17
2018-09-10T03:27:32.301Z,95.75
2018-09-10T03:28:32.282Z,95.65
2018-09-10T03:29:32.257Z,95.84
2018-09-10T03:30:32.234Z,95.75
2018-09-10T03:31:32.213Z,96.61
2018-09-10T03:32:32.180Z,96.42
2018-09-10T03:33:32.223Z,96.42
2018-09-10T03:34:32.135Z,96.42
2018-09-10T03:35:32.108Z,96.51
2018-09-10T03:36:32.087Z,96.51
2018-09-10T03:37:32.048Z,96.66
2018-09-10T03:38:32.063Z,97.04
2018-09-10T03:39:32.013Z,97.04
2018-09-10T03:40:32.000Z,96.94
2018-09-10T03:41:31.971Z,97.04
2018-09-10T03:42:31.946Z,96.94
2018-09-10T03:43:31.921Z,96.84
2018-09-10T03:44:31.896Z,97.04
2018-09-10T03:45:31.874Z,96.18
2018-09-10T03:46:31.854Z,96.75
2018-09-10T03:47:31.821Z,96.08
2018-09-10T03:48:31.808Z,96.56
2018-09-10T03:49:31.778Z,96.37
2018-09-10T03:50:31.751Z,96.66
2018-09-10T03:51:31.729Z,96.18
2018-09-10T03:52:31.691Z,96.94
2018-09-10T03:53:31.679Z,96.94
2018-09-10T03:54:31.656Z,97.04
2018-09-10T03:55:31.634Z,96.75
2018-09-10T03:56:31.610Z,96.84
2018-09-10T03:57:31.588Z,97.23
2018-09-10T03:59:04.754Z,97.42
2018-09-10T03:59:31.539Z,97.23
2018-09-10T04:00:31.501Z,97.04
2018-09-10T04:01:31.486Z,97.04
2018-09-10T04:02:31.464Z,96.47
2018-09-10T04:03:31.441Z,96.47
2018-09-10T04:04:31.413Z,96.94
2018-09-10T04:05:31.378Z,97.52
2018-09-10T04:06:31.371Z,96.84
2018-09-10T04:07:31.339Z,97.42
2018-09-10T04:08:31.321Z,97.08
2018-09-10T04:09:31.297Z,97.28
2018-09-10T04:10:31.278Z,97.80
2018-09-10T04:11:31.233Z,97.23
2018-09-10T04:12:31.206Z,97.80
2018-09-10T04:13:31.185Z,97.52
2018-09-10T04:14:31.174Z,97.85
2018-09-10T04:15:31.150Z,96.99
2018-09-10T04:16:31.113Z,97.28
2018-09-10T04:17:31.099Z,97.71
2018-09-10T04:18:31.075Z,97.75
2018-09-10T04:19:31.048Z,97.85
2018-09-10T04:20:31.018Z,97.85
2018-09-10T04:21:30.989Z,97.85
2018-09-10T04:22:30.967Z,97.56
2018-09-10T04:23:30.956Z,97.75
2018-09-10T04:24:30.933Z,97.47
2018-09-10T04:25:30.912Z,97.56
2018-09-10T04:26:30.881Z,97.85
2018-09-10T04:27:30.860Z,97.85
2018-09-10T04:28:30.839Z,97.80
2018-09-10T04:29:30.812Z,97.66
2018-09-10T04:30:30.794Z,97.75
2018-09-10T04:31:30.759Z,97.85
2018-09-10T04:32:30.737Z,97.75
2018-09-10T04:33:30.715Z,97.75
2018-09-10T04:34:30.695Z,98.14
2018-09-10T04:35:30.648Z,97.85
2018-09-10T04:36:30.634Z,97.75
2018-09-10T04:37:30.615Z,97.66
2018-09-10T04:38:30.591Z,98.14
2018-09-10T04:39:30.569Z,98.43
2018-09-10T04:40:30.541Z,98.43
2018-09-10T04:41:30.503Z,98.24
2018-09-10T04:42:30.493Z,98.33
2018-09-10T04:43:30.472Z,98.14
2018-09-10T04:44:30.452Z,98.14
2018-09-10T04:45:30.417Z,98.33
2018-09-10T04:46:30.398Z,98.14
2018-09-10T04:47:30.374Z,97.85
2018-09-10T04:48:30.348Z,98.24
2018-09-10T04:49:30.376Z,98.14
2018-09-10T04:50:30.286Z,98.14
2018-09-10T04:51:30.274Z,98.24
2018-09-10T04:52:30.256Z,98.04
2018-09-10T04:53:30.228Z,98.14
2018-09-10T04:54:30.209Z,98.04
2018-09-10T04:55:30.163Z,98.14
2018-09-10T04:56:30.154Z,97.85
2018-09-10T04:57:30.127Z,98.04
2018-09-10T04:58:30.112Z,98.24
2018-09-10T04:59:30.085Z,98.14
2018-09-10T05:00:30.055Z,98.24
2018-09-10T05:01:30.030Z,98.33
2018-09-10T05:02:29.992Z,98.24
2018-09-10T05:03:29.982Z,98.24
2018-09-10T05:04:30.012Z,97.66
2018-09-10T05:05:29.936Z,98.04
2018-09-10T05:06:29.897Z,97.75
2018-09-10T05:07:29.888Z,98.71
2018-09-10T05:08:29.869Z,98.14
2018-09-10T05:09:29.824Z,98.43
2018-09-10T05:10:29.811Z,98.04
2018-09-10T05:11:29.790Z,97.85
2018-09-10T05:12:29.767Z,98.33
2018-09-10T05:13:29.830Z,98.14
2018-09-10T05:14:29.719Z,97.08
2018-09-10T05:15:29.679Z,97.75
2018-09-10T05:16:29.669Z,97.85
2018-09-10T05:17:29.631Z,97.37
2018-09-10T05:18:29.599Z,97.37
2018-09-10T05:19:29.598Z,97.85
2018-09-10T05:20:29.555Z,97.37
2018-09-10T05:21:29.547Z,97.95
2018-09-10T05:22:29.519Z,97.47
2018-09-10T05:23:29.481Z,97.28
2018-09-10T05:24:29.470Z,97.47
2018-09-10T05:25:29.457Z,97.85
2018-09-10T05:26:29.429Z,97.85
2018-09-10T05:27:29.404Z,97.28
2018-09-10T05:28:29.375Z,97.47
2018-09-10T05:29:29.341Z,97.18
2018-09-10T05:30:29.335Z,96.70
2018-09-10T05:31:29.303Z,96.80
2018-09-10T05:32:29.279Z,97.37
2018-09-10T05:33:29.254Z,97.28
2018-09-10T05:34:29.233Z,97.08
2018-09-10T05:35:29.211Z,96.42
2018-09-10T05:36:29.185Z,96.42
2018-09-10T05:37:29.157Z,96.42
2018-09-10T05:38:29.118Z,96.32
2018-09-10T05:39:29.111Z,96.70
2018-09-10T05:40:29.085Z,96.32
2018-09-10T05:41:29.074Z,96.51
2018-09-10T05:42:29.024Z,96.51
2018-09-10T05:43:28.997Z,96.51
2018-09-10T05:44:28.987Z,96.32
2018-09-10T05:45:28.959Z,96.32
2018-09-10T05:46:28.939Z,96.32
2018-09-10T05:47:28.915Z,96.51
2018-09-10T05:48:28.874Z,96.89
2018-09-10T05:49:28.865Z,97.08
2018-09-10T05:50:28.931Z,97.08
2018-09-10T05:51:28.801Z,96.99
2018-09-10T05:52:28.775Z,96.89
2018-09-10T05:53:28.754Z,97.28
2018-09-10T05:54:28.726Z,96.89
2018-09-10T05:55:28.738Z,96.89
2018-09-10T05:56:28.684Z,96.70
2018-09-10T05:57:28.670Z,96.99
2018-09-10T05:58:28.648Z,96.89
2018-09-10T05:59:28.606Z,96.99
2018-09-10T06:00:28.589Z,96.80
2018-09-10T06:01:28.576Z,96.70
2018-09-10T06:02:28.554Z,96.99
2018-09-10T06:03:28.508Z,96.89
2018-09-10T06:04:28.498Z,97.18
2018-09-10T06:05:28.470Z,97.37
2018-09-10T06:06:28.453Z,97.08
2018-09-10T06:07:28.425Z,97.75
2018-09-10T06:08:28.407Z,97.47
2018-09-10T06:09:28.369Z,97.75
2018-09-10T06:10:28.377Z,97.18
2018-09-10T06:11:28.329Z,97.66
2018-09-10T06:12:28.307Z,97.90
2018-09-10T06:13:28.278Z,97.99
2018-09-10T06:14:28.253Z,97.75
2018-09-10T06:15:28.226Z,97.33
2018-09-10T06:16:28.235Z,97.33
2018-09-10T06:17:28.183Z,97.71
2018-09-10T06:18:28.163Z,97.71
2018-09-10T06:19:28.129Z,97.71
2018-09-10T06:20:28.097Z,97.90
2018-09-10T06:21:28.085Z,98.28
2018-09-10T06:22:28.057Z,97.90
2018-09-10T06:23:28.030Z,97.90
2018-09-10T06:24:27.997Z,98.66
2018-09-10T06:25:27.975Z,98.18
2018-09-10T06:26:27.946Z,97.71
2018-09-10T06:27:27.925Z,97.42
2018-09-10T06:28:27.898Z,98.57
2018-09-10T06:29:27.887Z,98.28
2018-09-10T06:30:27.854Z,98.18
2018-09-10T06:31:27.821Z,98.47
2018-09-10T06:32:27.810Z,97.90
2018-09-10T06:33:27.778Z,98.18
2018-09-10T06:34:27.749Z,97.90
2018-09-10T06:35:27.739Z,98.18
2018-09-10T06:36:27.711Z,98.66
2018-09-10T06:37:27.683Z,98.47
2018-09-10T06:38:27.668Z,98.95
2018-09-10T06:39:27.635Z,98.85
2018-09-10T06:40:27.609Z,98.66
2018-09-10T06:41:27.581Z,98.75
2018-09-10T06:42:27.551Z,99.43
2018-09-10T06:43:27.537Z,99.62
2018-09-10T06:44:27.516Z,98.47
2018-09-10T06:45:27.478Z,99.04
2018-09-10T06:46:27.467Z,98.85
2018-09-10T06:47:27.426Z,99.43
2018-09-10T06:48:27.402Z,99.24
2018-09-10T06:49:27.377Z,99.43
2018-09-10T06:50:27.372Z,99.43
2018-09-10T06:51:27.345Z,99.43
2018-09-10T06:52:27.316Z,99.43
2018-09-10T06:53:27.301Z,99.71
2018-09-10T06:54:27.273Z,99.71
2018-09-10T06:55:27.243Z,99.62
2018-09-10T06:56:27.205Z,99.52
2018-09-10T06:57:27.196Z,99.99
2018-09-10T06:58:27.174Z,99.90
2018-09-10T06:59:27.144Z,99.90
2018-09-10T07:00:27.128Z,99.81
2018-09-10T07:01:27.097Z,99.99
2018-09-10T07:02:27.073Z,99.62
2018-09-10T07:03:27.046Z,99.81
2018-09-10T07:04:27.022Z,99.99
2018-09-10T07:05:26.997Z,99.99
2018-09-10T07:06:27.026Z,99.99
2018-09-10T07:07:26.946Z,99.99
2018-09-10T07:08:26.915Z,99.99
2018-09-10T07:09:26.901Z,99.99
2018-09-10T07:10:26.873Z,99.99
2018-09-10T07:11:26.831Z,99.99
2018-09-10T07:12:26.819Z,99.99
2018-09-10T07:13:26.789Z,99.99
2018-09-10T07:14:26.760Z,99.99
2018-09-10T07:15:26.735Z,99.99
2018-09-10T07:16:26.721Z,99.99
2018-09-10T07:17:26.702Z,99.99
2018-09-10T07:18:26.681Z,99.99
2018-09-10T07:19:26.652Z,99.99
2018-09-10T07:20:26.629Z,99.99
2018-09-10T07:21:26.597Z,99.99
2018-09-10T07:22:26.583Z,99.99
2018-09-10T07:23:26.643Z,99.99
2018-09-10T07:24:26.510Z,99.99
2018-09-10T07:25:26.490Z,99.99
2018-09-10T07:26:26.481Z,99.99
2018-09-10T07:27:26.455Z,99.99
2018-09-10T07:28:26.426Z,99.99
2018-09-10T07:29:26.403Z,99.99
2018-09-10T07:30:26.377Z,99.99
2018-09-10T07:31:26.336Z,99.99
2018-09-10T07:32:26.315Z,99.99
2018-09-10T07:33:26.302Z,99.99
2018-09-10T07:34:26.310Z,99.99
2018-09-10T07:35:26.251Z,99.99
2018-09-10T07:36:26.231Z,99.99
2018-09-10T07:37:26.204Z,99.99
2018-09-10T07:38:26.181Z,99.99
2018-09-10T07:39:26.157Z,99.99
2018-09-10T07:40:26.129Z,99.99
2018-09-10T07:41:26.104Z,99.99
2018-09-10T07:42:26.066Z,99.99
2018-09-10T07:43:26.076Z,99.99
2018-09-10T07:44:26.030Z,99.99
2018-09-10T07:45:26.005Z,99.99
2018-09-10T07:46:25.980Z,99.99
2018-09-10T07:47:25.953Z,99.99
2018-09-10T07:48:25.936Z,99.99
2018-09-10T07:49:25.902Z,99.99
2018-09-10T07:50:25.871Z,99.99
2018-09-10T07:51:25.844Z,99.99
2018-09-10T07:52:25.812Z,99.99
2018-09-10T07:53:25.789Z,99.99
2018-09-10T07:54:25.835Z,99.99
2018-09-10T07:55:25.754Z,99.99
2018-09-10T07:56:25.735Z,99.99
2018-09-10T07:57:25.705Z,99.99
2018-09-10T07:58:25.681Z,99.99
2018-09-10T07:59:25.647Z,99.99
2018-09-10T08:00:25.640Z,99.99
2018-09-10T08:01:25.614Z,99.99
2018-09-10T08:02:25.587Z,99.99
2018-09-10T08:03:25.565Z,99.99
2018-09-10T08:04:25.534Z,99.99
2018-09-10T08:05:25.512Z,99.99
2018-09-10T08:06:25.488Z,99.99
2018-09-10T08:07:25.457Z,99.99
2018-09-10T08:08:25.433Z,99.99
2018-09-10T08:09:25.501Z,99.99
2018-09-10T08:10:25.375Z,99.99
2018-09-10T08:11:25.357Z,99.99
2018-09-10T08:12:25.335Z,99.99
2018-09-10T08:13:25.310Z,99.99
2018-09-10T08:14:25.287Z,99.99
2018-09-10T08:15:25.257Z,99.99
2018-09-10T08:16:25.288Z,99.99
2018-09-10T08:17:25.210Z,99.99
2018-09-10T08:18:25.188Z,99.99
2018-09-10T08:19:25.160Z,99.99
2018-09-10T08:20:25.133Z,99.99
2018-09-10T08:21:25.109Z,99.99
2018-09-10T08:22:25.087Z,99.99
2018-09-10T08:23:25.149Z,99.99
2018-09-10T08:24:25.117Z,99.99
2018-09-10T08:25:25.014Z,99.99
2018-09-10T08:26:24.985Z,99.99
2018-09-10T08:27:24.960Z,99.99
2018-09-10T08:28:24.938Z,99.99
2018-09-10T08:29:24.901Z,99.99
2018-09-10T08:30:24.938Z,99.99
2018-09-10T08:31:24.896Z,99.99
2018-09-10T08:32:24.835Z,99.99
2018-09-10T08:33:24.817Z,99.99
2018-09-10T08:34:24.792Z,99.99
2018-09-10T08:35:24.754Z,99.99
2018-09-10T08:36:24.726Z,99.99
2018-09-10T08:37:24.703Z,99.99
2018-09-10T08:38:24.672Z,99.99
2018-09-10T08:39:24.670Z,99.99
2018-09-10T08:40:24.648Z,99.99
2018-09-10T08:41:24.620Z,99.99
2018-09-10T08:42:24.588Z,99.99
2018-09-10T08:43:24.571Z,99.99
2018-09-10T08:44:24.545Z,99.99
2018-09-10T08:45:24.508Z,99.99
2018-09-10T08:46:24.498Z,99.99
2018-09-10T08:47:24.484Z,99.99
2018-09-10T08:48:24.558Z,99.99
2018-09-10T08:49:24.428Z,99.99
2018-09-10T08:50:24.401Z,99.99
2018-09-10T08:51:24.369Z,99.99
2018-09-10T08:52:24.351Z,99.99
2018-09-10T08:53:24.320Z,99.99
2018-09-10T08:54:24.354Z,99.99
2018-09-10T08:55:24.416Z,99.99
2018-09-10T08:56:24.285Z,99.99
2018-09-10T08:57:24.212Z,99.99
2018-09-10T08:58:24.201Z,99.99
2018-09-10T08:59:24.179Z,99.99
2018-09-10T09:00:24.177Z,99.99
2018-09-10T09:01:24.128Z,99.99
2018-09-10T09:02:24.140Z,99.99
2018-09-10T09:03:24.064Z,99.99
2018-09-10T09:04:24.057Z,99.99
2018-09-10T09:05:24.028Z,99.99
2018-09-10T09:06:24.073Z,99.99
2018-09-10T09:07:23.981Z,99.99
2018-09-10T09:08:23.955Z,99.99
2018-09-10T09:09:23.934Z,99.99
2018-09-10T09:10:23.907Z,99.99
2018-09-10T09:11:23.885Z,99.99
2018-09-10T09:12:23.860Z,99.99
2018-09-10T09:13:23.836Z,99.99
2018-09-10T09:14:23.800Z,99.99
2018-09-10T09:15:23.784Z,99.99
2018-09-10T09:16:23.757Z,99.99
2018-09-10T09:17:23.782Z,99.99
2018-09-10T09:18:23.802Z,99.99
2018-09-10T09:19:23.677Z,99.99
2018-09-10T09:20:23.664Z,99.99
2018-09-10T09:21:23.640Z,99.99
2018-09-10T09:22:23.617Z,99.99
2018-09-10T09:23:23.615Z,99.99
2018-09-10T09:24:23.567Z,99.99
2018-09-10T09:25:23.545Z,99.99
2018-09-10T09:26:23.521Z,99.99
2018-09-10T09:27:23.500Z,99.99
2018-09-10T09:28:23.873Z,99.99
2018-09-10T09:29:23.455Z,99.99
2018-09-10T09:30:23.510Z,99.99
2018-09-10T09:31:23.448Z,99.99
2018-09-10T09:32:23.373Z,99.99
2018-09-10T09:33:23.347Z,99.99
2018-09-10T09:34:23.309Z,99.99
2018-09-10T09:35:23.299Z,99.99
2018-09-10T09:36:23.421Z,99.99
2018-09-10T09:37:23.235Z,99.96
2018-09-10T09:38:23.224Z,99.96
2018-09-10T09:39:23.196Z,99.67
2018-09-10T09:40:23.167Z,99.33
2018-09-10T09:41:23.143Z,98.28
2018-09-10T09:42:23.134Z,97.09
2018-09-10T09:43:23.145Z,96.99
2018-09-10T09:44:23.071Z,96.22
2018-09-10T09:45:23.055Z,95.94
2018-09-10T09:46:23.037Z,94.40
2018-09-10T09:47:23.014Z,94.55
2018-09-10T09:48:22.987Z,94.07
2018-09-10T09:49:22.951Z,93.69
2018-09-10T09:50:22.939Z,92.82
2018-09-10T09:51:22.919Z,91.72
2018-09-10T09:52:22.903Z,92.10
2018-09-10T09:53:22.871Z,92.01
2018-09-10T09:54:22.852Z,91.91
2018-09-10T09:55:22.830Z,92.15
2018-09-10T09:56:22.808Z,92.35
2018-09-10T09:57:22.782Z,92.25
2018-09-10T09:58:22.761Z,92.39
2018-09-10T09:59:22.734Z,91.43
2018-09-10T10:00:22.712Z,90.61
2018-09-10T10:01:22.687Z,89.56
2018-09-10T10:02:22.665Z,88.70
2018-09-10T10:03:22.628Z,88.98
2018-09-10T10:04:22.607Z,88.60
2018-09-10T10:05:22.581Z,88.22
2018-09-10T10:06:22.575Z,87.88
2018-09-10T10:07:22.555Z,87.68
2018-09-10T10:08:22.532Z,87.26
2018-09-10T10:09:22.510Z,88.17
2018-09-10T10:10:22.543Z,87.49
2018-09-10T10:11:22.538Z,87.84
2018-09-10T10:12:22.608Z,88.89
2018-09-10T10:13:22.400Z,89.08
2018-09-10T10:14:22.397Z,89.47
2018-09-10T10:15:22.375Z,87.78
2018-09-10T10:16:22.410Z,87.40
2018-09-10T10:17:22.329Z,87.84
2018-09-10T10:18:22.315Z,88.65
2018-09-10T10:19:22.291Z,90.00
2018-09-10T10:20:22.268Z,90.28
2018-09-10T10:21:22.245Z,91.67
2018-09-10T10:22:22.220Z,91.14
2018-09-10T10:23:22.196Z,90.14
2018-09-10T10:24:22.181Z,88.51
2018-09-10T10:25:22.156Z,88.89
2018-09-10T10:26:22.138Z,89.47
2018-09-10T10:27:22.108Z,88.12
2018-09-10T10:28:22.138Z,87.84
2018-09-10T10:29:22.057Z,88.70
2018-09-10T10:30:22.051Z,89.61
2018-09-10T10:31:22.009Z,91.00
2018-09-10T10:32:21.994Z,91.58
2018-09-10T10:33:21.980Z,92.06
2018-09-10T10:34:21.946Z,92.54
2018-09-10T10:35:21.940Z,92.15
2018-09-10T10:36:21.922Z,92.54
2018-09-10T10:37:21.900Z,92.92
2018-09-10T10:38:21.875Z,93.21
2018-09-10T10:39:21.998Z,93.11
2018-09-10T10:40:21.817Z,93.88
2018-09-10T10:41:21.812Z,93.16
2018-09-10T10:42:21.786Z,93.11
2018-09-10T10:43:21.767Z,93.02
2018-09-10T10:44:21.749Z,93.11
2018-09-10T10:45:21.723Z,93.30
2018-09-10T10:46:21.698Z,93.40
2018-09-10T10:47:21.720Z,93.21
2018-09-10T10:48:21.661Z,93.49
2018-09-10T10:49:21.620Z,93.21
2018-09-10T10:50:21.609Z,94.07
2018-09-10T10:51:21.683Z,93.11
2018-09-10T10:52:21.550Z,92.49
2018-09-10T10:53:21.550Z,91.91
2018-09-10T10:54:21.519Z,92.10
2018-09-10T10:55:21.501Z,91.48
2018-09-10T10:56:21.473Z,90.90
2018-09-10T10:57:21.454Z,89.47
2018-09-10T10:58:21.413Z,89.08
2018-09-10T10:59:21.398Z,89.65
2018-09-10T11:00:21.390Z,89.51
2018-09-10T11:01:21.370Z,87.78
2018-09-10T11:02:21.348Z,87.82
2018-09-10T11:03:21.322Z,86.77
2018-09-10T11:04:21.357Z,86.24
2018-09-10T11:05:21.278Z,85.57
2018-09-10T11:06:21.267Z,85.08
2018-09-10T11:07:21.234Z,83.87
2018-09-10T11:08:21.214Z,83.49
2018-09-10T11:09:21.192Z,81.99
2018-09-10T11:10:21.161Z,81.28
2018-09-10T11:11:21.155Z,83.16
2018-09-10T11:12:21.128Z,84.51
2018-09-10T11:13:21.107Z,84.22
2018-09-10T11:14:21.078Z,84.89
2018-09-10T11:15:21.068Z,84.60
2018-09-10T11:16:21.055Z,85.18
2018-09-10T11:17:21.029Z,85.14
2018-09-10T11:18:20.997Z,85.14
2018-09-10T11:19:20.988Z,85.24
2018-09-10T11:20:20.964Z,86.29
2018-09-10T11:21:20.943Z,86.44
2018-09-10T11:22:20.954Z,87.44
2018-09-10T11:23:20.907Z,86.38
2018-09-10T11:24:20.890Z,86.96
2018-09-10T11:25:20.874Z,85.33
2018-09-10T11:26:20.854Z,85.52
2018-09-10T11:27:20.831Z,86.72
2018-09-10T11:28:20.801Z,86.82
2018-09-10T11:29:20.790Z,86.63
2018-09-10T11:30:20.767Z,85.91
2018-09-10T11:31:20.751Z,86.10
2018-09-10T11:32:20.729Z,84.85
2018-09-10T11:33:20.687Z,83.74
2018-09-10T11:34:20.685Z,82.73
2018-09-10T11:35:20.661Z,82.34
2018-09-10T11:36:20.634Z,80.94
2018-09-10T11:37:20.620Z,80.07
2018-09-10T11:38:20.595Z,79.88
2018-09-10T11:39:20.587Z,80.61
2018-09-10T11:40:20.645Z,82.10
2018-09-10T11:41:20.546Z,83.45
2018-09-10T11:42:20.525Z,83.80
2018-09-10T11:43:20.507Z,84.95
2018-09-10T11:44:20.473Z,85.86
2018-09-10T11:45:20.467Z,86.82
2018-09-10T11:46:20.449Z,86.54
2018-09-10T11:47:20.431Z,86.63
2018-09-10T11:48:20.411Z,87.59
2018-09-10T11:49:20.386Z,87.40
2018-09-10T11:50:20.370Z,85.66
2018-09-10T11:51:20.342Z,84.41
2018-09-10T11:52:20.360Z,83.93
2018-09-10T11:53:20.297Z,84.85
2018-09-10T11:54:20.281Z,85.52
2018-09-10T11:55:20.254Z,86.10
2018-09-10T11:56:20.241Z,86.92
2018-09-10T11:57:20.220Z,85.33
2018-09-10T11:58:20.193Z,83.84
2018-09-10T11:59:20.184Z,82.82
2018-09-10T12:00:20.154Z,82.92
2018-09-10T12:01:20.135Z,81.86
2018-09-10T12:02:20.115Z,81.82
2018-09-10T12:03:20.096Z,82.68
2018-09-10T12:04:20.073Z,82.87
2018-09-10T12:05:20.058Z,83.98
2018-09-10T12:06:20.037Z,85.04
2018-09-10T12:07:20.024Z,83.84
2018-09-10T12:08:19.999Z,82.30
2018-09-10T12:09:19.982Z,83.80
2018-09-10T12:10:19.957Z,84.47
2018-09-10T12:11:19.934Z,84.66
2018-09-10T12:12:19.916Z,84.47
2018-09-10T12:13:19.880Z,83.93
2018-09-10T12:14:19.877Z,82.24
2018-09-10T12:15:19.862Z,81.19
2018-09-10T12:16:19.844Z,80.96
2018-09-10T12:17:19.807Z,82.30
2018-09-10T12:18:19.804Z,82.74
2018-09-10T12:19:19.773Z,82.78
2018-09-10T12:20:19.740Z,82.34
2018-09-10T12:21:19.753Z,80.80
2018-09-10T12:22:19.702Z,80.22
2018-09-10T12:23:19.689Z,81.34
2018-09-10T12:24:19.674Z,82.20
2018-09-10T12:25:19.658Z,80.76
2018-09-10T12:26:19.639Z,81.72
2018-09-10T12:27:19.617Z,80.99
2018-09-10T12:28:19.599Z,80.76
2018-09-10T12:29:19.590Z,81.05
2018-09-10T12:30:19.561Z,81.34
2018-09-10T12:31:19.544Z,82.20
2018-09-10T12:32:19.551Z,81.78
2018-09-10T12:33:19.510Z,82.07
2018-09-10T12:34:19.479Z,82.45
2018-09-10T12:35:19.461Z,82.68
2018-09-10T12:36:19.444Z,81.63
2018-09-10T12:37:19.414Z,81.72
2018-09-10T12:38:19.388Z,81.15
2018-09-10T12:39:19.442Z,81.53
2018-09-10T12:40:19.365Z,81.67
2018-09-10T12:41:19.341Z,80.90
2018-09-10T12:42:19.306Z,80.71
2018-09-10T12:43:19.307Z,79.46
2018-09-10T12:44:19.285Z,79.42
2018-09-10T12:45:19.260Z,79.71
2018-09-10T12:46:19.291Z,80.42
2018-09-10T12:47:19.207Z,79.27
2018-09-10T12:48:19.202Z,79.36
2018-09-10T12:49:19.178Z,78.88
2018-09-10T12:50:19.166Z,78.11
2018-09-10T12:51:19.141Z,77.67
2018-09-10T12:52:19.120Z,77.67